Latest Weather Observations for Meekatharra

IDW60801

Issued at 8:02 am WST Monday 3 August 2015 (issued every 30 minutes, with the page automatically refreshed every 10 minutes)

About weather observations | Map of weather stations | Latest weather observations for WA | Other Formats
Station Details ID: 007045 Name: MEEKATHARRA AIRPORT Lat: -26.61 Lon: 118.54 Height: 517.0 m
Data from the previous 72 hours. | See also: Recent months at Meekatharra
Date/Time
WST
Temp
°C
App
Temp
°C
Dew
Point
Rel
Hum
%
Delta-T
°C
Wind Press
QNH
hPa
Press
MSL
hPa
Rain
since 9 am
mm
Dir
 
Spd
km/h
Gust
km/h
Spd
kts
Gust
kts
03/07:30am 8.1 2.3 2.5 68 2.4 E 22 33 12 18 1029.7 - 0.0
03/07:00am 7.7 2.4 2.8 71 2.1 ESE 20 32 11 17 1029.5 - 0.0
03/06:30am 8.1 2.0 2.5 68 2.4 E 24 32 13 17 1029.3 - 0.0
03/06:00am 8.3 2.6 3.0 69 2.3 E 22 32 12 17 1029.2 1028.5 0.0
03/05:30am 8.8 2.7 2.8 66 2.6 E 24 35 13 19 1029.1 - 0.0
03/05:00am 9.1 3.5 3.2 66 2.6 E 22 35 12 19 1028.8 - 0.0
03/04:30am 9.2 2.9 3.6 68 2.5 ESE 26 37 14 20 1028.6 - 0.0
03/04:00am 9.2 3.2 3.6 68 2.5 ESE 24 37 13 20 1028.5 - 0.0
03/03:30am 9.1 3.3 4.2 71 2.2 ESE 24 37 13 20 1028.7 - 0.0
03/03:00am 9.4 3.5 4.1 69 2.4 ESE 24 35 13 19 1028.8 1028.0 0.0
03/02:30am 9.5 3.7 4.2 69 2.4 ESE 24 35 13 19 1028.9 - 0.0
03/02:00am 9.7 3.9 4.2 68 2.5 ESE 24 37 13 20 1029.0 - 0.0
03/01:30am 9.9 3.3 4.4 68 2.5 ESE 28 35 15 19 1028.9 - 0.0
03/01:00am 10.2 3.7 4.5 68 2.6 ESE 28 43 15 23 1028.9 - 0.0
03/12:30am 10.5 4.4 4.6 67 2.7 ESE 26 35 14 19 1029.0 - 0.0
03/12:00am 10.7 4.6 4.9 67 2.7 ESE 26 41 14 22 1028.9 1028.1 0.0
 
Date/Time
WST
Temp
°C
App
Temp
°C
Dew
Point
Rel
Hum
%
Delta-T
°C
Wind Press
QNH
hPa
Press
MSL
hPa
Rain
since 9 am
mm
Dir
 
Spd
km/h
Gust
km/h
Spd
kts
Gust
kts
02/11:30pm 11.1 5.0 4.9 65 2.9 ESE 26 35 14 19 1029.1 - 0.0
02/11:00pm 11.4 5.7 5.0 65 3.0 ESE 24 35 13 19 1029.1 - 0.0
02/10:30pm 11.8 6.5 5.2 64 3.1 ESE 22 33 12 18 1029.3 - 0.0
02/10:00pm 12.1 6.9 5.3 63 3.2 ESE 22 32 12 17 1029.3 - 0.0
02/09:30pm 12.5 7.6 5.3 61 3.4 SE 20 30 11 16 1029.1 - 0.0
02/09:00pm 12.7 8.4 5.3 60 3.5 SE 17 26 9 14 1029.2 1028.5 0.0
02/08:30pm 13.3 8.4 5.1 57 3.9 SE 20 28 11 15 1029.1 - 0.0
02/08:00pm 13.5 8.6 5.1 57 4.0 SE 20 30 11 16 1028.9 - 0.0
02/07:30pm 13.7 9.1 5.4 57 4.0 SE 19 26 10 14 1028.7 - 0.0
02/07:00pm 14.3 9.4 5.1 54 4.4 SE 20 30 11 16 1028.2 - 0.0
02/06:30pm 14.9 9.9 4.6 50 4.9 ESE 20 28 11 15 1027.8 - 0.0
02/06:00pm 15.2 10.0 5.3 51 4.8 SE 22 35 12 19 1027.5 1026.8 0.0
02/05:30pm 15.6 10.0 5.6 51 4.9 ESE 24 35 13 19 1027.3 - 0.0
02/05:00pm 15.9 9.9 5.5 50 5.1 ESE 26 41 14 22 1026.9 - 0.0
02/04:30pm 16.3 10.9 6.3 51 5.0 ESE 24 35 13 19 1026.6 - 0.0
02/04:00pm 17.1 11.2 5.8 47 5.6 ESE 26 37 14 20 1026.3 - 0.0
02/03:30pm 17.0 11.2 6.2 49 5.4 ESE 26 37 14 20 1026.3 - 0.0
02/03:00pm 17.7 12.3 6.4 47 5.7 ESE 24 35 13 19 1026.3 1025.5 0.0
02/02:30pm 17.9 12.1 6.4 47 5.8 ESE 26 39 14 21 1026.0 - 0.0
02/02:00pm 17.0 11.3 6.7 50 5.2 SE 26 35 14 19 1026.0 - 0.0
02/01:30pm 17.9 12.2 6.7 48 5.7 ESE 26 37 14 20 1026.1 - 0.0
02/01:00pm 16.9 12.0 7.1 52 5.0 SE 22 35 12 19 1026.5 - 0.0
02/12:30pm 16.5 11.4 7.5 55 4.6 ESE 24 37 13 20 1026.8 - 0.0
02/12:00pm 16.6 11.9 7.6 55 4.6 SE 22 30 12 16 1027.1 1026.3 0.0
02/11:30am 16.3 10.8 7.5 56 4.5 E 26 37 14 20 1027.3 - 0.0
02/11:00am 16.0 10.9 7.6 57 4.3 ESE 24 33 13 18 1027.3 - 0.0
02/10:30am 15.2 10.3 8.4 64 3.5 ESE 24 33 13 18 1027.4 - 0.0
02/10:00am 13.7 9.5 9.9 78 2.0 SE 22 30 12 16 1027.4 - 0.0
02/09:28am 13.8 9.4 8.8 72 2.6 ESE 22 33 12 18 1027.3 - 0.0
02/09:00am 13.4 9.4 9.2 76 2.2 ESE 20 32 11 17 1027.0 1026.2 0.0
02/08:49am 13.0 9.1 9.3 78 1.9 ESE 20 30 11 16 1026.9 - 0.0
02/08:30am 12.2 7.4 10.3 88 1.0 ESE 26 35 14 19 1026.7 - 0.0
02/08:00am 12.4 6.8 8.9 79 1.8 ESE 28 39 15 21 1026.5 - 0.0
02/07:30am 12.2 7.0 8.7 79 1.8 E 26 35 14 19 1025.9 - 0.0
02/07:00am 12.0 8.2 8.9 81 1.6 ESE 19 30 10 16 1025.4 - 0.0
02/06:30am 11.8 7.4 8.9 82 1.5 ESE 22 33 12 18 1025.0 - 0.0
02/06:00am 11.8 7.1 9.1 83 1.4 ESE 24 35 13 19 1024.5 1023.7 0.0
02/05:30am 12.2 8.3 9.5 83 1.4 ESE 20 30 11 16 1024.1 - 0.0
02/05:00am 12.1 7.4 9.4 83 1.4 SE 24 37 13 20 1023.8 - 0.0
02/04:30am 11.7 8.5 9.8 88 1.0 SE 17 22 9 12 1023.7 - 0.0
02/04:01am 11.4 7.8 9.7 89 0.9 SE 19 28 10 15 1023.5 - 0.0
02/04:00am 11.4 7.8 9.7 89 0.9 SE 19 28 10 15 1023.5 - 0.0
02/03:30am 11.0 7.7 9.4 90 0.8 SSE 17 22 9 12 1023.5 - 0.0
02/03:00am 11.3 7.9 9.2 87 1.1 SSE 17 22 9 12 1023.5 1022.7 0.0
02/02:30am 11.3 8.6 8.9 85 1.2 SSE 13 15 7 8 1023.3 - 0.0
02/02:00am 10.6 8.9 8.4 86 1.1 S 7 11 4 6 1023.4 - 0.0
02/01:30am 11.1 8.2 8.3 83 1.4 S 13 17 7 9 1023.3 - 0.0
02/01:00am 11.3 8.8 8.1 81 1.6 S 11 13 6 7 1023.3 - 0.0
02/12:30am 11.7 9.2 8.1 78 1.8 S 11 13 6 7 1023.1 - 0.0
02/12:00am 11.9 9.4 8.1 77 1.9 S 11 13 6 7 1023.0 1022.2 0.0
 
Date/Time
WST
Temp
°C
App
Temp
°C
Dew
Point
Rel
Hum
%
Delta-T
°C
Wind Press
QNH
hPa
Press
MSL
hPa
Rain
since 9 am
mm
Dir
 
Spd
km/h
Gust
km/h
Spd
kts
Gust
kts
01/11:30pm 12.4 9.9 8.0 74 2.2 S 11 13 6 7 1023.1 - 0.0
01/11:00pm 12.9 10.0 8.2 73 2.4 S 13 17 7 9 1023.1 - 0.0
01/10:30pm 13.2 10.3 8.1 71 2.6 S 13 17 7 9 1023.1 - 0.0
01/10:00pm 13.5 11.0 8.2 70 2.7 S 11 13 6 7 1022.9 - 0.0
01/09:30pm 13.7 11.6 8.4 70 2.7 S 9 13 5 7 1022.7 - 0.0
01/09:00pm 14.4 11.9 8.4 67 3.1 S 11 13 6 7 1022.5 1021.7 0.0
01/08:30pm 15.0 12.1 8.0 63 3.6 S 13 15 7 8 1022.3 - 0.0
01/08:00pm 15.1 12.7 7.2 59 4.0 S 9 11 5 6 1022.0 - 0.0
01/07:30pm 15.7 12.8 6.5 54 4.6 S 11 13 6 7 1021.7 - 0.0
01/07:00pm 16.4 13.4 6.2 51 5.1 SSW 11 15 6 8 1021.2 - 0.0
01/06:30pm 17.0 14.4 6.2 49 5.4 SSW 9 13 5 7 1020.7 - 0.0
01/06:00pm 17.9 14.4 5.4 43 6.2 SSW 13 19 7 10 1020.3 1019.4 0.0
01/05:30pm 18.7 14.7 4.7 39 6.9 SSW 15 26 8 14 1019.8 - 0.0
01/05:00pm 19.3 15.0 5.3 39 7.0 SW 17 22 9 12 1019.4 - 0.0
01/04:30pm 20.0 16.2 5.6 39 7.3 SW 15 22 8 12 1019.2 - 0.0
01/04:00pm 19.6 15.8 5.8 40 7.0 SW 15 20 8 11 1019.0 - 0.0
01/03:30pm 19.2 15.0 5.5 40 6.9 WSW 17 26 9 14 1018.7 - 0.0
01/03:00pm 21.2 16.6 5.8 36 7.9 SW 19 33 10 18 1018.5 1017.6 0.0
01/02:30pm 20.4 16.8 6.7 41 7.1 WSW 15 24 8 13 1018.6 - 0.0
01/02:00pm 19.5 15.9 6.7 43 6.6 SW 15 24 8 13 1018.6 - 0.0
01/01:30pm 20.1 16.1 6.8 42 6.9 WSW 17 26 9 14 1018.7 - 0.0
01/01:00pm 19.6 15.9 7.8 46 6.2 SW 17 24 9 13 1018.9 - 0.0
01/12:30pm 18.5 14.7 7.5 48 5.7 WSW 17 26 9 14 1019.2 - 0.0
01/12:00pm 18.1 14.2 8.7 54 5.0 WSW 19 32 10 17 1019.5 1018.7 0.0
01/11:30am 17.2 14.1 8.7 57 4.5 SW 15 22 8 12 1019.7 - 0.0
01/11:00am 17.3 14.4 9.5 60 4.2 WSW 15 24 8 13 1020.0 - 0.0
01/10:30am 16.8 13.9 9.7 63 3.8 WSW 15 24 8 13 1020.4 - 0.0
01/10:00am 16.0 12.8 10.0 67 3.2 W 17 24 9 13 1020.4 - 0.0
01/09:30am 15.4 12.7 10.4 72 2.7 W 15 19 8 10 1020.0 - 0.0
01/09:15am 15.2 12.6 10.6 74 2.5 W 15 22 8 12 1019.9 - 0.0
01/09:00am 15.2 12.9 11.6 79 2.0 WNW 15 22 8 12 1019.9 1019.1 1.0
01/08:30am 14.1 12.2 11.7 85 1.3 WNW 13 17 7 9 1019.3 - 1.0
01/08:10am 13.7 12.1 11.7 88 1.1 W 11 15 6 8 1019.1 - 1.0
01/08:00am 13.9 12.7 11.7 86 1.2 W 9 15 5 8 1018.9 - 1.0
01/07:30am 13.1 12.3 11.6 91 0.8 NW 7 9 4 5 1018.5 - 1.0
01/07:07am 11.9 11.0 11.2 95 0.4 NW 7 9 4 5 1018.3 - 1.0
01/07:00am 11.9 11.0 11.2 95 0.4 NW 7 9 4 5 1018.0 - 1.0
01/06:39am 11.9 11.0 11.2 95 0.4 WNW 7 11 4 6 1017.8 - 1.0
01/06:30am 11.5 10.4 10.7 95 0.4 NW 7 9 4 5 1017.8 - 1.0
01/06:00am 12.2 11.3 11.3 94 0.5 W 7 11 4 6 1017.5 1016.7 1.0
01/05:30am 12.2 11.4 11.1 93 0.6 W 6 7 3 4 1017.4 - 1.0
01/05:00am 13.0 11.7 11.1 88 1.0 W 9 11 5 6 1017.3 - 1.0
01/04:30am 13.5 11.8 11.1 85 1.3 W 11 15 6 8 1017.1 - 1.0
01/04:00am 14.1 11.6 11.0 81 1.7 WSW 15 20 8 11 1017.1 - 1.0
01/03:30am 14.4 12.3 11.1 80 1.8 WSW 13 17 7 9 1017.2 - 1.0
01/03:00am 14.6 12.5 11.3 80 1.8 SW 13 20 7 11 1016.9 1016.0 1.0
01/02:30am 15.1 12.7 11.3 78 2.1 SW 15 20 8 11 1017.2 - 1.0
01/02:00am 15.3 12.8 10.9 75 2.4 WSW 15 22 8 12 1017.2 - 1.0
01/01:30am 15.8 12.4 10.7 71 2.8 WSW 19 22 10 12 1017.3 - 1.0
01/01:00am 16.1 12.5 10.6 70 3.0 W 20 28 11 15 1017.2 - 1.0
01/12:30am 16.1 14.0 13.5 84 1.5 W 17 22 9 12 1017.1 - 1.0
01/12:00am 16.2 14.4 14.5 90 1.0 W 17 24 9 13 1017.1 1016.2 1.0
 
Date/Time
WST
Temp
°C
App
Temp
°C
Dew
Point
Rel
Hum
%
Delta-T
°C
Wind Press
QNH
hPa
Press
MSL
hPa
Rain
since 9 am
mm
Dir
 
Spd
km/h
Gust
km/h
Spd
kts
Gust
kts
31/11:31pm 16.2 14.5 14.8 91 0.8 WSW 17 26 9 14 1017.1 - 1.0
31/11:30pm 16.2 14.5 14.7 91 0.9 WSW 17 26 9 14 1017.2 - 1.0
31/11:06pm 17.0 15.1 15.3 90 1.0 WSW 19 32 10 17 1017.0 - 1.0
31/11:00pm 17.1 16.3 16.1 94 0.6 WSW 15 24 8 13 1017.0 - 1.0
31/10:30pm 16.9 15.9 15.7 93 0.7 W 15 24 8 13 1016.8 - 0.8
31/10:09pm 17.1 14.7 15.3 89 1.1 W 22 35 12 19 1016.8 - 0.4
31/10:00pm 17.7 15.1 15.0 84 1.6 W 22 32 12 17 1016.7 - 0.0
31/09:30pm 17.6 15.5 15.1 85 1.5 W 20 32 11 17 1016.5 - 0.0
31/09:00pm 18.6 14.5 13.8 73 2.8 WSW 28 37 15 20 1016.4 1015.9 0.0
31/08:30pm 19.2 15.1 13.7 70 3.2 WSW 28 46 15 25 1016.5 - 0.0
31/08:26pm 19.4 15.2 13.6 69 3.4 WSW 28 46 15 25 1016.4 - 0.0
31/08:00pm 19.8 15.5 13.1 65 3.9 SW 28 43 15 23 1015.9 - 0.0
31/07:30pm 23.0 19.1 6.9 35 8.5 W 17 26 9 14 1014.9 - 0.0
31/07:00pm 23.7 19.6 6.4 32 9.1 W 17 26 9 14 1014.6 - 0.0
31/06:30pm 24.3 19.9 6.6 32 9.4 WNW 19 28 10 15 1014.2 - 0.0
31/06:00pm 24.8 19.4 6.3 30 9.8 WNW 24 35 13 19 1013.8 1013.3 0.0
31/05:30pm 25.4 19.3 6.4 29 10.1 WNW 28 44 15 24 1013.5 - 0.0
31/05:00pm 26.1 20.0 6.7 29 10.4 NW 28 39 15 21 1013.2 - 0.0
31/04:30pm 26.6 20.1 6.7 28 10.7 WNW 30 44 16 24 1013.1 - 0.0
31/04:00pm 27.1 20.9 7.8 29 10.6 NW 30 41 16 22 1013.1 - 0.0
31/03:43pm 27.2 21.3 7.5 28 10.8 WNW 28 46 15 25 1013.0 - 0.0
31/03:30pm 27.8 22.2 7.1 27 11.3 NW 26 39 14 21 1013.1 - 0.0
31/03:00pm 27.4 22.1 7.0 27 11.1 NW 24 43 13 23 1013.1 1012.6 0.0
31/02:30pm 27.9 22.0 7.5 27 11.2 NW 28 41 15 22 1013.4 - 0.0
31/02:00pm 27.8 21.8 7.1 27 11.3 NW 28 46 15 25 1013.7 - 0.0
31/01:30pm 27.8 21.9 7.4 27 11.2 WNW 28 35 15 19 1013.8 - 0.0
31/01:00pm 28.0 21.6 7.1 26 11.4 NW 30 41 16 22 1014.4 - 0.0
31/12:30pm 27.9 22.7 7.2 27 11.3 NW 24 37 13 20 1015.1 - 0.0
31/12:00pm 27.6 22.8 7.3 27 11.1 NW 22 33 12 18 1015.6 1015.1 0.0
31/11:30am 27.1 22.2 7.0 28 10.9 NNW 22 35 12 19 1016.2 - 0.0
31/11:00am 26.2 21.3 6.9 29 10.4 N 22 30 12 16 1016.7 - 0.0
31/10:30am 25.1 21.2 7.0 31 9.7 N 17 24 9 13 1017.1 - 0.0
31/10:00am 23.5 19.6 7.2 35 8.7 NNW 17 20 9 11 1017.4 - 0.0
31/09:30am 22.1 18.5 6.9 37 8.0 N 15 20 8 11 1017.6 - 0.0
31/09:00am 20.9 17.4 7.2 41 7.2 NNW 15 19 8 10 1017.7 1017.3 0.0
31/08:30am 19.3 16.2 7.2 45 6.3 N 13 15 7 8 1017.7 - 0.0

Other Formats:

Comma delimited format used in spreadsheet applications
http://www.bom.gov.au/fwo/IDW60801/IDW60801.94430.axf

JavaScript Object Notation format (JSON) in row-major order
http://www.bom.gov.au/fwo/IDW60801/IDW60801.94430.json